sensor_id;sensor_type;location;lat;lon;timestamp;pressure;altitude;pressure_sealevel;temperature;humidity
7157;BME280;3620;49.862;8.758;2022-08-05T00:01:52;98902.25;;;29.22;47.78
7157;BME280;3620;49.862;8.758;2022-08-05T00:04:20;98913.91;;;29.01;48.62
7157;BME280;3620;49.862;8.758;2022-08-05T00:06:47;98949.56;;;28.83;48.56
7157;BME280;3620;49.862;8.758;2022-08-05T00:09:14;98973.53;;;28.65;49.66
7157;BME280;3620;49.862;8.758;2022-08-05T00:11:41;98988.94;;;28.65;49.37
7157;BME280;3620;49.862;8.758;2022-08-05T00:14:08;98982.09;;;28.54;49.85
7157;BME280;3620;49.862;8.758;2022-08-05T00:16:34;98970.19;;;28.34;51.06
7157;BME280;3620;49.862;8.758;2022-08-05T00:19:01;98990.53;;;28.30;51.20
7157;BME280;3620;49.862;8.758;2022-08-05T00:21:29;98998.94;;;28.35;51.33
7157;BME280;3620;49.862;8.758;2022-08-05T00:23:56;99002.56;;;28.27;51.61
7157;BME280;3620;49.862;8.758;2022-08-05T00:26:25;99008.84;;;28.28;51.58
7157;BME280;3620;49.862;8.758;2022-08-05T00:28:52;98999.25;;;28.11;52.95
7157;BME280;3620;49.862;8.758;2022-08-05T00:31:18;99004.81;;;28.09;54.13
7157;BME280;3620;49.862;8.758;2022-08-05T00:33:45;99000.03;;;27.97;55.18
7157;BME280;3620;49.862;8.758;2022-08-05T00:36:12;99009.78;;;28.06;55.08
7157;BME280;3620;49.862;8.758;2022-08-05T00:38:40;99007.81;;;28.00;56.10
7157;BME280;3620;49.862;8.758;2022-08-05T00:41:08;98998.13;;;27.68;57.62
7157;BME280;3620;49.862;8.758;2022-08-05T00:43:35;99007.09;;;27.69;57.96
7157;BME280;3620;49.862;8.758;2022-08-05T00:46:02;99013.81;;;27.73;58.26
7157;BME280;3620;49.862;8.758;2022-08-05T00:48:29;99001.28;;;27.72;58.58
7157;BME280;3620;49.862;8.758;2022-08-05T00:50:55;98998.38;;;27.58;59.43
7157;BME280;3620;49.862;8.758;2022-08-05T00:53:22;99000.00;;;27.68;59.47
7157;BME280;3620;49.862;8.758;2022-08-05T00:55:50;98998.31;;;27.67;59.49
7157;BME280;3620;49.862;8.758;2022-08-05T00:58:17;98991.31;;;27.57;59.42
7157;BME280;3620;49.862;8.758;2022-08-05T01:00:45;98995.22;;;27.70;59.23
7157;BME280;3620;49.862;8.758;2022-08-05T01:03:13;98985.47;;;27.69;58.89
7157;BME280;3620;49.862;8.758;2022-08-05T01:05:39;98991.69;;;27.69;58.90
7157;BME280;3620;49.862;8.758;2022-08-05T01:08:07;98990.56;;;27.64;59.38
7157;BME280;3620;49.862;8.758;2022-08-05T01:10:37;98988.06;;;27.62;59.33
7157;BME280;3620;49.862;8.758;2022-08-05T01:13:15;98986.25;;;27.54;59.35
7157;BME280;3620;49.862;8.758;2022-08-05T01:15:46;98959.53;;;27.59;59.29
7157;BME280;3620;49.862;8.758;2022-08-05T01:18:21;98933.53;;;27.73;59.25
7157;BME280;3620;49.862;8.758;2022-08-05T01:20:52;98900.06;;;27.89;58.67
7157;BME280;3620;49.862;8.758;2022-08-05T01:23:36;98923.91;;;27.85;58.40
7157;BME280;3620;49.862;8.758;2022-08-05T01:26:17;98935.47;;;27.94;58.36
7157;BME280;3620;49.862;8.758;2022-08-05T01:28:50;98930.69;;;28.04;57.58
7157;BME280;3620;49.862;8.758;2022-08-05T01:31:23;98924.50;;;28.10;58.08
7157;BME280;3620;49.862;8.758;2022-08-05T01:33:59;98922.34;;;28.20;56.77
7157;BME280;3620;49.862;8.758;2022-08-05T01:36:30;98933.06;;;28.13;56.75
7157;BME280;3620;49.862;8.758;2022-08-05T01:38:58;98931.84;;;28.16;56.50
7157;BME280;3620;49.862;8.758;2022-08-05T01:41:26;98935.50;;;28.23;56.33
7157;BME280;3620;49.862;8.758;2022-08-05T01:43:56;98928.03;;;28.25;56.46
7157;BME280;3620;49.862;8.758;2022-08-05T01:46:24;98926.34;;;28.24;56.21
7157;BME280;3620;49.862;8.758;2022-08-05T01:48:53;98920.81;;;28.32;56.24
7157;BME280;3620;49.862;8.758;2022-08-05T01:51:21;98921.94;;;28.38;55.74
7157;BME280;3620;49.862;8.758;2022-08-05T01:53:50;98918.19;;;28.39;55.50
7157;BME280;3620;49.862;8.758;2022-08-05T01:56:20;98909.13;;;28.46;55.66
7157;BME280;3620;49.862;8.758;2022-08-05T01:58:50;98903.31;;;28.49;55.48
7157;BME280;3620;49.862;8.758;2022-08-05T02:01:20;98907.34;;;28.53;55.34
7157;BME280;3620;49.862;8.758;2022-08-05T02:03:50;98905.28;;;28.55;55.54
7157;BME280;3620;49.862;8.758;2022-08-05T02:06:19;98883.63;;;28.55;55.46
7157;BME280;3620;49.862;8.758;2022-08-05T02:08:46;98887.56;;;28.53;55.51
7157;BME280;3620;49.862;8.758;2022-08-05T02:11:15;98884.09;;;28.59;55.67
7157;BME280;3620;49.862;8.758;2022-08-05T02:13:48;98882.25;;;28.59;55.25
7157;BME280;3620;49.862;8.758;2022-08-05T02:16:21;98872.16;;;28.53;55.70
7157;BME280;3620;49.862;8.758;2022-08-05T02:18:52;98877.94;;;28.50;55.78
7157;BME280;3620;49.862;8.758;2022-08-05T02:21:24;98865.44;;;28.49;55.93
7157;BME280;3620;49.862;8.758;2022-08-05T02:23:55;98863.56;;;28.50;55.87
7157;BME280;3620;49.862;8.758;2022-08-05T02:26:26;98860.16;;;28.41;56.21
7157;BME280;3620;49.862;8.758;2022-08-05T02:28:55;98871.34;;;28.38;56.32
7157;BME280;3620;49.862;8.758;2022-08-05T02:31:26;98876.75;;;28.38;57.05
7157;BME280;3620;49.862;8.758;2022-08-05T02:33:56;98889.28;;;28.39;56.48
7157;BME280;3620;49.862;8.758;2022-08-05T02:36:24;98894.03;;;28.37;56.98
7157;BME280;3620;49.862;8.758;2022-08-05T02:38:54;98899.81;;;28.34;57.19
7157;BME280;3620;49.862;8.758;2022-08-05T02:41:23;98921.47;;;28.34;56.84
7157;BME280;3620;49.862;8.758;2022-08-05T02:43:51;98913.19;;;28.36;56.73
7157;BME280;3620;49.862;8.758;2022-08-05T02:46:19;98913.63;;;28.39;56.66
7157;BME280;3620;49.862;8.758;2022-08-05T02:48:48;98922.59;;;28.40;56.37
7157;BME280;3620;49.862;8.758;2022-08-05T02:51:16;98944.06;;;28.41;57.07
7157;BME280;3620;49.862;8.758;2022-08-05T02:53:43;98969.34;;;28.33;57.50
7157;BME280;3620;49.862;8.758;2022-08-05T02:56:12;98981.28;;;28.24;58.51
7157;BME280;3620;49.862;8.758;2022-08-05T02:58:39;98971.13;;;28.12;59.13
7157;BME280;3620;49.862;8.758;2022-08-05T03:01:08;98972.56;;;28.08;58.87
7157;BME280;3620;49.862;8.758;2022-08-05T03:03:38;98980.25;;;27.96;59.87
7157;BME280;3620;49.862;8.758;2022-08-05T03:06:09;98979.16;;;27.91;59.25
7157;BME280;3620;49.862;8.758;2022-08-05T03:08:36;98977.09;;;27.93;61.06
7157;BME280;3620;49.862;8.758;2022-08-05T03:11:04;98975.03;;;27.95;60.59
7157;BME280;3620;49.862;8.758;2022-08-05T03:13:41;98955.06;;;27.96;61.46
7157;BME280;3620;49.862;8.758;2022-08-05T03:16:08;98959.56;;;27.89;62.87
7157;BME280;3620;49.862;8.758;2022-08-05T03:18:34;98952.09;;;27.91;61.33
7157;BME280;3620;49.862;8.758;2022-08-05T03:21:01;98944.06;;;27.83;61.05
7157;BME280;3620;49.862;8.758;2022-08-05T03:23:29;98920.84;;;27.74;61.52
7157;BME280;3620;49.862;8.758;2022-08-05T03:25:57;98921.88;;;27.73;61.21
7157;BME280;3620;49.862;8.758;2022-08-05T03:28:24;98929.69;;;27.68;62.31
7157;BME280;3620;49.862;8.758;2022-08-05T03:30:52;98930.34;;;27.55;62.20
7157;BME280;3620;49.862;8.758;2022-08-05T03:33:20;98939.31;;;27.55;63.13
7157;BME280;3620;49.862;8.758;2022-08-05T03:35:47;98944.56;;;27.49;62.08
7157;BME280;3620;49.862;8.758;2022-08-05T03:38:14;98947.75;;;27.52;62.70
7157;BME280;3620;49.862;8.758;2022-08-05T03:40:43;98946.00;;;27.59;62.88
7157;BME280;3620;49.862;8.758;2022-08-05T03:43:11;98962.50;;;27.65;62.22
7157;BME280;3620;49.862;8.758;2022-08-05T03:45:38;99020.97;;;27.66;62.19
7157;BME280;3620;49.862;8.758;2022-08-05T03:48:04;99097.22;;;27.30;63.68
7157;BME280;3620;49.862;8.758;2022-08-05T03:50:36;99095.81;;;27.12;65.39
7157;BME280;3620;49.862;8.758;2022-08-05T03:53:11;99132.59;;;26.82;66.64
7157;BME280;3620;49.862;8.758;2022-08-05T03:55:43;99133.94;;;26.70;71.10
7157;BME280;3620;49.862;8.758;2022-08-05T03:58:14;99129.59;;;26.61;71.08
7157;BME280;3620;49.862;8.758;2022-08-05T04:00:42;99115.16;;;26.30;70.93
7157;BME280;3620;49.862;8.758;2022-08-05T04:03:10;99099.72;;;25.75;72.40
7157;BME280;3620;49.862;8.758;2022-08-05T04:05:39;99079.50;;;25.79;74.07
7157;BME280;3620;49.862;8.758;2022-08-05T04:08:09;99064.00;;;25.73;74.83
7157;BME280;3620;49.862;8.758;2022-08-05T04:10:36;99056.59;;;25.59;77.23
7157;BME280;3620;49.862;8.758;2022-08-05T04:13:05;99063.81;;;25.51;77.74
7157;BME280;3620;49.862;8.758;2022-08-05T04:15:32;99069.38;;;25.57;78.33
7157;BME280;3620;49.862;8.758;2022-08-05T04:18:00;99063.31;;;25.63;78.87
7157;BME280;3620;49.862;8.758;2022-08-05T04:20:27;99053.88;;;25.67;77.66
7157;BME280;3620;49.862;8.758;2022-08-05T04:22:54;99043.97;;;25.60;78.80
7157;BME280;3620;49.862;8.758;2022-08-05T04:25:21;99054.16;;;25.40;80.07
7157;BME280;3620;49.862;8.758;2022-08-05T04:27:47;99055.03;;;25.32;80.45
7157;BME280;3620;49.862;8.758;2022-08-05T04:30:15;99052.69;;;25.37;80.45
7157;BME280;3620;49.862;8.758;2022-08-05T04:32:42;99040.22;;;25.36;80.97
7157;BME280;3620;49.862;8.758;2022-08-05T04:35:09;99044.44;;;25.31;81.42
7157;BME280;3620;49.862;8.758;2022-08-05T04:37:35;99048.47;;;25.35;81.48
7157;BME280;3620;49.862;8.758;2022-08-05T04:40:03;99061.59;;;25.30;81.21
7157;BME280;3620;49.862;8.758;2022-08-05T04:42:30;99076.41;;;25.26;81.79
7157;BME280;3620;49.862;8.758;2022-08-05T04:44:57;99075.06;;;25.30;81.18
7157;BME280;3620;49.862;8.758;2022-08-05T04:47:25;99077.56;;;25.31;79.74
7157;BME280;3620;49.862;8.758;2022-08-05T04:49:51;99086.84;;;25.37;80.70
7157;BME280;3620;49.862;8.758;2022-08-05T04:52:18;99095.31;;;25.50;81.05
7157;BME280;3620;49.862;8.758;2022-08-05T04:54:45;99098.16;;;25.65;81.08
7157;BME280;3620;49.862;8.758;2022-08-05T04:57:11;99101.72;;;25.57;80.87
7157;BME280;3620;49.862;8.758;2022-08-05T04:59:38;99113.66;;;25.63;80.69
7157;BME280;3620;49.862;8.758;2022-08-05T05:02:05;99114.53;;;25.55;81.36
7157;BME280;3620;49.862;8.758;2022-08-05T05:04:33;99116.22;;;25.64;81.27
7157;BME280;3620;49.862;8.758;2022-08-05T05:07:00;99120.69;;;25.39;82.36
7157;BME280;3620;49.862;8.758;2022-08-05T05:09:26;99126.81;;;25.00;83.72
7157;BME280;3620;49.862;8.758;2022-08-05T05:11:53;99133.19;;;24.99;84.85
7157;BME280;3620;49.862;8.758;2022-08-05T05:14:19;99142.22;;;24.82;85.42
7157;BME280;3620;49.862;8.758;2022-08-05T05:16:46;99141.88;;;24.77;85.89
7157;BME280;3620;49.862;8.758;2022-08-05T05:19:13;99139.72;;;24.62;86.66
7157;BME280;3620;49.862;8.758;2022-08-05T05:21:41;99146.78;;;24.55;87.33
7157;BME280;3620;49.862;8.758;2022-08-05T05:24:07;99137.78;;;24.72;87.31
7157;BME280;3620;49.862;8.758;2022-08-05T05:26:34;99143.09;;;24.64;87.18
7157;BME280;3620;49.862;8.758;2022-08-05T05:29:01;99135.19;;;24.55;87.24
7157;BME280;3620;49.862;8.758;2022-08-05T05:31:28;99139.69;;;24.54;88.05
7157;BME280;3620;49.862;8.758;2022-08-05T05:33:54;99130.19;;;24.68;87.73
7157;BME280;3620;49.862;8.758;2022-08-05T05:36:21;99134.84;;;24.84;86.98
7157;BME280;3620;49.862;8.758;2022-08-05T05:38:49;99140.91;;;24.86;85.79
7157;BME280;3620;49.862;8.758;2022-08-05T05:41:16;99155.59;;;25.07;85.82
7157;BME280;3620;49.862;8.758;2022-08-05T05:43:42;99164.94;;;24.87;86.73
7157;BME280;3620;49.862;8.758;2022-08-05T05:46:09;99174.44;;;24.73;87.41
7157;BME280;3620;49.862;8.758;2022-08-05T05:48:36;99167.97;;;24.84;88.02
7157;BME280;3620;49.862;8.758;2022-08-05T05:51:03;99142.44;;;24.96;87.76
7157;BME280;3620;49.862;8.758;2022-08-05T05:53:29;99151.44;;;25.13;87.17
7157;BME280;3620;49.862;8.758;2022-08-05T05:55:57;99143.69;;;25.18;85.67
7157;BME280;3620;49.862;8.758;2022-08-05T05:58:24;99164.91;;;25.13;85.74
7157;BME280;3620;49.862;8.758;2022-08-05T06:00:51;99164.91;;;25.13;85.87
7157;BME280;3620;49.862;8.758;2022-08-05T06:03:17;99143.06;;;25.24;85.67
7157;BME280;3620;49.862;8.758;2022-08-05T06:05:44;99151.13;;;25.24;84.67
7157;BME280;3620;49.862;8.758;2022-08-05T06:08:11;99136.16;;;25.29;84.55
7157;BME280;3620;49.862;8.758;2022-08-05T06:10:37;99133.34;;;25.47;83.83
7157;BME280;3620;49.862;8.758;2022-08-05T06:13:05;99125.31;;;25.55;83.41
7157;BME280;3620;49.862;8.758;2022-08-05T06:15:32;99125.28;;;25.71;82.00
7157;BME280;3620;49.862;8.758;2022-08-05T06:17:59;99124.31;;;25.88;80.97
7157;BME280;3620;49.862;8.758;2022-08-05T06:20:26;99115.88;;;25.99;79.58
7157;BME280;3620;49.862;8.758;2022-08-05T06:22:52;99109.47;;;26.16;80.06
7157;BME280;3620;49.862;8.758;2022-08-05T06:25:19;99104.38;;;26.30;79.49
7157;BME280;3620;49.862;8.758;2022-08-05T06:27:45;99098.63;;;26.49;77.92
7157;BME280;3620;49.862;8.758;2022-08-05T06:30:14;99099.84;;;26.69;77.23
7157;BME280;3620;49.862;8.758;2022-08-05T06:32:41;99091.25;;;26.81;76.60
7157;BME280;3620;49.862;8.758;2022-08-05T06:35:08;99087.91;;;27.10;75.54
7157;BME280;3620;49.862;8.758;2022-08-05T06:37:35;99081.31;;;27.35;73.71
7157;BME280;3620;49.862;8.758;2022-08-05T06:40:03;99070.47;;;27.43;71.80
7157;BME280;3620;49.862;8.758;2022-08-05T06:42:30;99083.88;;;27.59;71.60
7157;BME280;3620;49.862;8.758;2022-08-05T06:44:56;99081.22;;;27.74;71.21
7157;BME280;3620;49.862;8.758;2022-08-05T06:47:24;99094.31;;;27.63;70.63
7157;BME280;3620;49.862;8.758;2022-08-05T06:49:51;99099.59;;;27.79;70.10
7157;BME280;3620;49.862;8.758;2022-08-05T06:52:18;99092.72;;;27.91;69.66
7157;BME280;3620;49.862;8.758;2022-08-05T06:54:45;99096.56;;;27.96;69.08
7157;BME280;3620;49.862;8.758;2022-08-05T06:57:11;99089.13;;;27.98;68.30
7157;BME280;3620;49.862;8.758;2022-08-05T06:59:39;99080.16;;;27.98;66.48
7157;BME280;3620;49.862;8.758;2022-08-05T07:02:06;99088.69;;;28.09;67.25
7157;BME280;3620;49.862;8.758;2022-08-05T07:04:34;99105.06;;;28.30;66.58
7157;BME280;3620;49.862;8.758;2022-08-05T07:07:01;99113.47;;;28.50;65.43
7157;BME280;3620;49.862;8.758;2022-08-05T07:09:28;99112.09;;;28.69;64.38
7157;BME280;3620;49.862;8.758;2022-08-05T07:11:54;99130.28;;;28.60;62.52
7157;BME280;3620;49.862;8.758;2022-08-05T07:14:21;99137.47;;;28.53;60.74
7157;BME280;3620;49.862;8.758;2022-08-05T07:17:05;99158.44;;;28.37;61.24
7157;BME280;3620;49.862;8.758;2022-08-05T07:19:34;99196.34;;;28.14;61.87
7157;BME280;3620;49.862;8.758;2022-08-05T07:22:01;99182.56;;;28.09;62.79
7157;BME280;3620;49.862;8.758;2022-08-05T07:24:27;99180.94;;;27.69;66.37
7157;BME280;3620;49.862;8.758;2022-08-05T07:26:54;99168.13;;;27.40;66.49
7157;BME280;3620;49.862;8.758;2022-08-05T07:29:21;99155.28;;;27.04;65.87
7157;BME280;3620;49.862;8.758;2022-08-05T07:31:47;99163.59;;;26.94;69.11
7157;BME280;3620;49.862;8.758;2022-08-05T07:34:14;99216.84;;;26.53;69.99
7157;BME280;3620;49.862;8.758;2022-08-05T07:36:42;99201.16;;;26.49;73.23
7157;BME280;3620;49.862;8.758;2022-08-05T07:39:09;99203.19;;;26.06;73.55
7157;BME280;3620;49.862;8.758;2022-08-05T07:41:36;99201.81;;;25.94;74.63
7157;BME280;3620;49.862;8.758;2022-08-05T07:44:04;99194.00;;;25.67;77.62
7157;BME280;3620;49.862;8.758;2022-08-05T07:46:31;99198.06;;;25.63;79.20
7157;BME280;3620;49.862;8.758;2022-08-05T07:49:00;99201.31;;;25.33;79.34
7157;BME280;3620;49.862;8.758;2022-08-05T07:51:27;99203.28;;;25.15;81.68
7157;BME280;3620;49.862;8.758;2022-08-05T07:53:55;99207.03;;;25.30;81.81
7157;BME280;3620;49.862;8.758;2022-08-05T07:56:22;99207.03;;;25.30;81.70
7157;BME280;3620;49.862;8.758;2022-08-05T07:58:48;99221.44;;;25.13;83.51
7157;BME280;3620;49.862;8.758;2022-08-05T08:01:15;99213.38;;;25.21;85.62
7157;BME280;3620;49.862;8.758;2022-08-05T08:03:42;99196.75;;;24.92;86.95
7157;BME280;3620;49.862;8.758;2022-08-05T08:06:08;99171.56;;;24.93;86.02
7157;BME280;3620;49.862;8.758;2022-08-05T08:08:35;99158.38;;;24.82;85.16
7157;BME280;3620;49.862;8.758;2022-08-05T08:11:03;99155.75;;;24.64;86.38
7157;BME280;3620;49.862;8.758;2022-08-05T08:13:30;99176.31;;;24.47;86.10
7157;BME280;3620;49.862;8.758;2022-08-05T08:15:57;99177.63;;;24.43;86.69
7157;BME280;3620;49.862;8.758;2022-08-05T08:18:23;99193.28;;;24.22;86.97
7157;BME280;3620;49.862;8.758;2022-08-05T08:20:50;99193.81;;;24.26;86.96
7157;BME280;3620;49.862;8.758;2022-08-05T08:23:17;99191.84;;;24.36;87.03
7157;BME280;3620;49.862;8.758;2022-08-05T08:25:44;99193.97;;;24.24;87.20
7157;BME280;3620;49.862;8.758;2022-08-05T08:28:12;99183.91;;;24.26;86.83
7157;BME280;3620;49.862;8.758;2022-08-05T08:30:39;99188.91;;;24.21;84.26
7157;BME280;3620;49.862;8.758;2022-08-05T08:33:07;99190.97;;;24.27;84.23
7157;BME280;3620;49.862;8.758;2022-08-05T08:35:34;99188.00;;;24.38;84.20
7157;BME280;3620;49.862;8.758;2022-08-05T08:38:00;99184.44;;;24.30;83.28
7157;BME280;3620;49.862;8.758;2022-08-05T08:40:28;99193.38;;;24.38;82.88
7157;BME280;3620;49.862;8.758;2022-08-05T08:42:57;99181.25;;;24.34;82.99
7157;BME280;3620;49.862;8.758;2022-08-05T08:45:26;99198.50;;;24.24;83.87
7157;BME280;3620;49.862;8.758;2022-08-05T08:47:53;99211.22;;;24.39;83.88
7157;BME280;3620;49.862;8.758;2022-08-05T08:50:20;99210.81;;;24.52;84.26
7157;BME280;3620;49.862;8.758;2022-08-05T08:52:52;99208.38;;;24.66;82.97
7157;BME280;3620;49.862;8.758;2022-08-05T08:55:19;99201.00;;;24.68;82.37
7157;BME280;3620;49.862;8.758;2022-08-05T08:57:46;99198.66;;;24.73;81.44
7157;BME280;3620;49.862;8.758;2022-08-05T09:00:14;99191.78;;;24.71;80.33
7157;BME280;3620;49.862;8.758;2022-08-05T09:02:43;99191.50;;;24.56;79.35
7157;BME280;3620;49.862;8.758;2022-08-05T09:05:11;99172.16;;;24.53;78.79
7157;BME280;3620;49.862;8.758;2022-08-05T09:07:38;99167.66;;;24.61;79.27
7157;BME280;3620;49.862;8.758;2022-08-05T09:10:06;99162.66;;;24.66;78.79
7157;BME280;3620;49.862;8.758;2022-08-05T09:12:33;99161.94;;;24.64;80.10
7157;BME280;3620;49.862;8.758;2022-08-05T09:15:01;99162.91;;;24.81;79.45
7157;BME280;3620;49.862;8.758;2022-08-05T09:17:29;99159.44;;;24.97;78.54
7157;BME280;3620;49.862;8.758;2022-08-05T09:19:57;99156.44;;;25.00;77.24
7157;BME280;3620;49.862;8.758;2022-08-05T09:22:24;99154.16;;;25.21;77.94
7157;BME280;3620;49.862;8.758;2022-08-05T09:24:59;99149.97;;;25.34;74.74
7157;BME280;3620;49.862;8.758;2022-08-05T09:27:34;99139.09;;;25.44;74.90
7157;BME280;3620;49.862;8.758;2022-08-05T09:30:02;99137.56;;;25.50;75.01
7157;BME280;3620;49.862;8.758;2022-08-05T09:32:34;99131.03;;;25.84;73.53
7157;BME280;3620;49.862;8.758;2022-08-05T09:35:10;99150.25;;;26.05;72.51
7157;BME280;3620;49.862;8.758;2022-08-05T09:37:48;99154.31;;;26.17;72.07
7157;BME280;3620;49.862;8.758;2022-08-05T09:40:31;99163.38;;;26.25;72.16
7157;BME280;3620;49.862;8.758;2022-08-05T09:42:59;99166.78;;;26.18;70.76
7157;BME280;3620;49.862;8.758;2022-08-05T09:45:39;99162.41;;;26.17;69.69
7157;BME280;3620;49.862;8.758;2022-08-05T09:48:20;99164.06;;;25.94;70.35
7157;BME280;3620;49.862;8.758;2022-08-05T09:50:52;99158.34;;;25.97;71.84
7157;BME280;3620;49.862;8.758;2022-08-05T09:53:19;99167.25;;;26.38;70.66
7157;BME280;3620;49.862;8.758;2022-08-05T09:55:45;99175.19;;;26.40;69.27
7157;BME280;3620;49.862;8.758;2022-08-05T09:58:14;99164.41;;;26.40;69.18
7157;BME280;3620;49.862;8.758;2022-08-05T10:00:51;99168.09;;;26.39;69.01
7157;BME280;3620;49.862;8.758;2022-08-05T10:03:19;99160.31;;;26.60;68.83
7157;BME280;3620;49.862;8.758;2022-08-05T10:06:00;99160.09;;;26.69;67.92
7157;BME280;3620;49.862;8.758;2022-08-05T10:08:27;99171.78;;;26.54;66.80
7157;BME280;3620;49.862;8.758;2022-08-05T10:10:54;99159.66;;;26.34;67.19
7157;BME280;3620;49.862;8.758;2022-08-05T10:13:31;99178.88;;;26.47;67.33
7157;BME280;3620;49.862;8.758;2022-08-05T10:15:58;99170.63;;;26.32;66.89
7157;BME280;3620;49.862;8.758;2022-08-05T10:18:25;99166.03;;;26.57;66.45
7157;BME280;3620;49.862;8.758;2022-08-05T10:20:56;99170.75;;;26.79;66.56
7157;BME280;3620;49.862;8.758;2022-08-05T10:23:26;99170.69;;;26.87;65.60
7157;BME280;3620;49.862;8.758;2022-08-05T10:25:54;99182.09;;;27.05;65.12
7157;BME280;3620;49.862;8.758;2022-08-05T10:28:21;99185.91;;;26.72;65.12
7157;BME280;3620;49.862;8.758;2022-08-05T10:30:50;99190.50;;;26.55;65.67
7157;BME280;3620;49.862;8.758;2022-08-05T10:33:17;99195.38;;;26.68;64.96
7157;BME280;3620;49.862;8.758;2022-08-05T10:35:44;99206.97;;;26.84;66.00
7157;BME280;3620;49.862;8.758;2022-08-05T10:38:11;99217.28;;;26.89;66.56
7157;BME280;3620;49.862;8.758;2022-08-05T10:40:45;99209.41;;;27.18;66.32
7157;BME280;3620;49.862;8.758;2022-08-05T10:43:27;99217.81;;;27.23;66.05
7157;BME280;3620;49.862;8.758;2022-08-05T10:45:57;99212.00;;;27.42;62.57
7157;BME280;3620;49.862;8.758;2022-08-05T10:48:31;99214.88;;;27.02;63.22
7157;BME280;3620;49.862;8.758;2022-08-05T10:51:04;99209.50;;;27.02;64.08
7157;BME280;3620;49.862;8.758;2022-08-05T10:53:33;99211.38;;;27.32;62.24
7157;BME280;3620;49.862;8.758;2022-08-05T10:56:03;99215.06;;;27.31;61.95
7157;BME280;3620;49.862;8.758;2022-08-05T10:58:30;99206.16;;;27.23;63.01
7157;BME280;3620;49.862;8.758;2022-08-05T11:01:03;99212.19;;;27.02;63.33
7157;BME280;3620;49.862;8.758;2022-08-05T11:03:31;99213.19;;;27.01;64.12
7157;BME280;3620;49.862;8.758;2022-08-05T11:06:08;99213.75;;;27.27;63.30
7157;BME280;3620;49.862;8.758;2022-08-05T11:08:35;99214.47;;;27.21;64.25
7157;BME280;3620;49.862;8.758;2022-08-05T11:11:34;99221.00;;;27.35;64.55
7157;BME280;3620;49.862;8.758;2022-08-05T11:14:02;99201.22;;;27.42;60.98
7157;BME280;3620;49.862;8.758;2022-08-05T11:16:30;99206.34;;;27.21;61.91
7157;BME280;3620;49.862;8.758;2022-08-05T11:19:25;99208.53;;;27.26;60.25
7157;BME280;3620;49.862;8.758;2022-08-05T11:21:53;99196.78;;;27.11;61.66
7157;BME280;3620;49.862;8.758;2022-08-05T11:24:19;99210.72;;;27.30;62.16
7157;BME280;3620;49.862;8.758;2022-08-05T11:26:50;99208.91;;;27.15;61.50
7157;BME280;3620;49.862;8.758;2022-08-05T11:29:39;99210.44;;;27.09;60.69
7157;BME280;3620;49.862;8.758;2022-08-05T11:32:25;99225.38;;;26.89;61.47
7157;BME280;3620;49.862;8.758;2022-08-05T11:34:53;99233.44;;;27.05;61.38
7157;BME280;3620;49.862;8.758;2022-08-05T11:37:41;99230.94;;;26.87;60.47
7157;BME280;3620;49.862;8.758;2022-08-05T11:40:07;99218.81;;;27.30;60.32
7157;BME280;3620;49.862;8.758;2022-08-05T11:42:39;99224.66;;;27.50;59.05
7157;BME280;3620;49.862;8.758;2022-08-05T11:45:11;99224.31;;;27.76;58.06
7157;BME280;3620;49.862;8.758;2022-08-05T11:47:38;99223.28;;;28.07;58.50
7157;BME280;3620;49.862;8.758;2022-08-05T11:50:05;99232.63;;;27.74;57.26
7157;BME280;3620;49.862;8.758;2022-08-05T11:52:32;99239.59;;;27.69;57.31
7157;BME280;3620;49.862;8.758;2022-08-05T11:54:59;99246.75;;;27.53;57.98
7157;BME280;3620;49.862;8.758;2022-08-05T11:57:30;99240.56;;;27.76;56.49
7157;BME280;3620;49.862;8.758;2022-08-05T11:59:58;99222.81;;;28.04;56.56
7157;BME280;3620;49.862;8.758;2022-08-05T12:02:26;99225.66;;;28.10;55.15
7157;BME280;3620;49.862;8.758;2022-08-05T12:04:53;99236.47;;;28.10;56.07
7157;BME280;3620;49.862;8.758;2022-08-05T12:07:23;99223.28;;;28.30;54.65
7157;BME280;3620;49.862;8.758;2022-08-05T12:09:52;99234.63;;;28.11;55.58
7157;BME280;3620;49.862;8.758;2022-08-05T12:12:22;99230.84;;;28.35;54.57
7157;BME280;3620;49.862;8.758;2022-08-05T12:14:49;99230.75;;;28.28;55.56
7157;BME280;3620;49.862;8.758;2022-08-05T12:17:18;99237.34;;;28.48;55.77
7157;BME280;3620;49.862;8.758;2022-08-05T12:19:46;99236.25;;;28.57;54.67
7157;BME280;3620;49.862;8.758;2022-08-05T12:22:14;99243.34;;;28.58;55.02
7157;BME280;3620;49.862;8.758;2022-08-05T12:24:43;99239.97;;;28.56;54.78
7157;BME280;3620;49.862;8.758;2022-08-05T12:27:18;99242.44;;;28.66;54.87
7157;BME280;3620;49.862;8.758;2022-08-05T12:29:45;99241.56;;;28.51;54.30
7157;BME280;3620;49.862;8.758;2022-08-05T12:32:13;99245.25;;;28.58;54.57
7157;BME280;3620;49.862;8.758;2022-08-05T12:34:42;99254.78;;;28.23;55.37
7157;BME280;3620;49.862;8.758;2022-08-05T12:37:09;99249.16;;;28.10;55.97
7157;BME280;3620;49.862;8.758;2022-08-05T12:39:37;99266.25;;;28.33;55.85
7157;BME280;3620;49.862;8.758;2022-08-05T12:42:08;99270.19;;;28.45;55.41
7157;BME280;3620;49.862;8.758;2022-08-05T12:44:35;99273.94;;;28.81;54.94
7157;BME280;3620;49.862;8.758;2022-08-05T12:47:03;99275.25;;;28.48;54.29
7157;BME280;3620;49.862;8.758;2022-08-05T12:49:43;99265.50;;;28.39;55.05
7157;BME280;3620;49.862;8.758;2022-08-05T12:52:13;99276.91;;;28.49;54.87
7157;BME280;3620;49.862;8.758;2022-08-05T12:54:41;99282.22;;;28.43;55.20
7157;BME280;3620;49.862;8.758;2022-08-05T12:57:10;99274.31;;;28.56;54.09
7157;BME280;3620;49.862;8.758;2022-08-05T12:59:46;99278.59;;;28.73;54.16
7157;BME280;3620;49.862;8.758;2022-08-05T13:02:17;99271.59;;;28.78;53.62
7157;BME280;3620;49.862;8.758;2022-08-05T13:04:47;99285.25;;;28.85;54.43
7157;BME280;3620;49.862;8.758;2022-08-05T13:07:16;99283.22;;;29.01;54.07
7157;BME280;3620;49.862;8.758;2022-08-05T13:09:48;99292.41;;;28.63;54.74
7157;BME280;3620;49.862;8.758;2022-08-05T13:12:16;99286.72;;;28.73;54.91
7157;BME280;3620;49.862;8.758;2022-08-05T13:14:45;99290.28;;;28.73;55.23
7157;BME280;3620;49.862;8.758;2022-08-05T13:17:16;99298.53;;;28.80;54.70
7157;BME280;3620;49.862;8.758;2022-08-05T13:19:59;99291.22;;;28.80;54.67
7157;BME280;3620;49.862;8.758;2022-08-05T13:22:26;99300.78;;;29.06;54.52
7157;BME280;3620;49.862;8.758;2022-08-05T13:24:53;99295.38;;;29.06;54.36
7157;BME280;3620;49.862;8.758;2022-08-05T13:27:27;99308.50;;;29.17;54.22
7157;BME280;3620;49.862;8.758;2022-08-05T13:29:54;99313.03;;;29.16;54.10
7157;BME280;3620;49.862;8.758;2022-08-05T13:32:21;99314.88;;;29.16;54.45